createdAt,value
2022-12-12T00:01:01.391Z,-1.20
2022-12-12T00:03:32.539Z,-1.20
2022-12-12T00:06:04.519Z,-1.30
2022-12-12T00:08:35.441Z,-1.30
2022-12-12T00:11:03.444Z,-1.30
2022-12-12T00:13:38.446Z,-1.30
2022-12-12T00:16:08.836Z,-1.30
2022-12-12T00:18:37.898Z,-1.30
2022-12-12T00:21:07.061Z,-1.30
2022-12-12T00:23:35.560Z,-1.30
2022-12-12T00:26:04.696Z,-1.30
2022-12-12T00:28:32.706Z,-1.30
2022-12-12T00:31:02.957Z,-1.40
2022-12-12T00:33:32.283Z,-1.30
2022-12-12T00:36:16.286Z,-1.30
2022-12-12T00:38:48.465Z,-1.40
2022-12-12T00:41:16.529Z,-1.40
2022-12-12T00:43:44.622Z,-1.40
2022-12-12T00:46:14.160Z,-1.40
2022-12-12T00:48:43.672Z,-1.40
2022-12-12T00:51:12.467Z,-1.40
2022-12-12T00:53:40.773Z,-1.40
2022-12-12T00:56:08.772Z,-1.40
2022-12-12T00:58:37.232Z,-1.40
2022-12-12T01:01:09.661Z,-1.40
2022-12-12T01:03:41.325Z,-1.50
2022-12-12T01:06:13.547Z,-1.50
2022-12-12T01:08:42.101Z,-1.50
2022-12-12T01:11:10.887Z,-1.50
2022-12-12T01:13:38.972Z,-1.50
2022-12-12T01:16:08.966Z,-1.60
2022-12-12T01:18:42.107Z,-1.60
2022-12-12T01:21:10.995Z,-1.60
2022-12-12T01:23:40.675Z,-1.60
2022-12-12T01:26:10.721Z,-1.70
2022-12-12T01:28:40.812Z,-1.70
2022-12-12T01:31:13.030Z,-1.70
2022-12-12T01:33:46.638Z,-1.70
2022-12-12T01:36:16.579Z,-1.70
2022-12-12T01:38:46.716Z,-1.70
2022-12-12T01:41:15.319Z,-1.70
2022-12-12T01:43:44.714Z,-1.70
2022-12-12T01:46:30.553Z,-1.70
2022-12-12T01:49:01.746Z,-1.70
2022-12-12T01:51:34.019Z,-1.80
2022-12-12T01:54:05.565Z,-1.80
2022-12-12T01:56:33.947Z,-1.70
2022-12-12T01:59:03.740Z,-1.70
2022-12-12T02:01:32.321Z,-1.70
2022-12-12T02:04:01.639Z,-1.70
2022-12-12T02:06:35.957Z,-1.70
2022-12-12T02:09:09.159Z,-1.70
2022-12-12T02:11:46.289Z,-1.70
2022-12-12T02:14:16.645Z,-1.80
2022-12-12T02:16:53.315Z,-1.80
2022-12-12T02:19:37.141Z,-1.80
2022-12-12T02:22:11.051Z,-1.80
2022-12-12T02:24:48.781Z,-1.90
2022-12-12T02:27:34.822Z,-1.90
2022-12-12T02:30:11.237Z,-1.90
2022-12-12T02:32:54.541Z,-1.90
2022-12-12T02:35:27.973Z,-2.00
2022-12-12T02:38:01.976Z,-2.00
2022-12-12T02:40:39.321Z,-1.90
2022-12-12T02:43:10.852Z,-2.00
2022-12-12T02:45:39.600Z,-1.90
2022-12-12T02:48:10.551Z,-2.00
2022-12-12T02:50:41.075Z,-2.00
2022-12-12T02:53:11.109Z,-2.00
2022-12-12T02:55:39.205Z,-2.00
2022-12-12T02:58:07.696Z,-2.00
2022-12-12T03:00:41.422Z,-2.00
2022-12-12T03:03:41.065Z,-2.00
2022-12-12T03:06:40.663Z,-2.00
2022-12-12T03:09:15.281Z,-2.00
2022-12-12T03:11:50.216Z,-2.00
2022-12-12T03:14:23.667Z,-2.00
2022-12-12T03:16:57.309Z,-2.00
2022-12-12T03:19:30.104Z,-2.00
2022-12-12T03:22:02.612Z,-2.00
2022-12-12T03:24:36.949Z,-2.10
2022-12-12T03:27:13.134Z,-2.10
2022-12-12T03:29:42.973Z,-2.10
2022-12-12T03:32:14.210Z,-2.10
2022-12-12T03:34:48.610Z,-2.10
2022-12-12T03:37:18.599Z,-2.10
2022-12-12T03:39:48.976Z,-2.10
2022-12-12T03:42:20.339Z,-2.10
2022-12-12T03:44:53.859Z,-2.10
2022-12-12T03:47:24.680Z,-2.10
2022-12-12T03:49:56.444Z,-2.10
2022-12-12T03:52:32.829Z,-2.10
2022-12-12T03:55:04.132Z,-2.10
2022-12-12T03:57:34.348Z,-2.10
2022-12-12T04:00:05.823Z,-2.10
2022-12-12T04:02:35.488Z,-2.10
2022-12-12T04:05:09.889Z,-2.10
2022-12-12T04:07:41.955Z,-2.10
2022-12-12T04:10:27.903Z,-2.10
2022-12-12T04:13:03.506Z,-2.10
2022-12-12T04:15:39.697Z,-2.10
2022-12-12T04:18:14.664Z,-2.10
2022-12-12T04:21:05.153Z,-2.10
2022-12-12T04:23:38.226Z,-2.10
2022-12-12T04:26:32.350Z,-2.10
2022-12-12T04:29:10.085Z,-2.10
2022-12-12T04:31:39.576Z,-2.10
2022-12-12T04:34:12.610Z,-2.10
2022-12-12T04:36:42.409Z,-2.10
2022-12-12T04:39:16.055Z,-2.10
2022-12-12T04:41:45.819Z,-2.10
2022-12-12T04:44:15.251Z,-2.10
2022-12-12T04:46:43.887Z,-2.10
2022-12-12T04:49:15.247Z,-2.20
2022-12-12T04:51:57.859Z,-2.20
2022-12-12T04:54:29.903Z,-2.20
2022-12-12T04:56:59.781Z,-2.20
2022-12-12T04:59:27.925Z,-2.20
2022-12-12T05:02:02.433Z,-2.20
2022-12-12T05:04:37.361Z,-3.30
2022-12-12T05:07:13.360Z,-2.20
2022-12-12T05:09:41.606Z,-2.20
2022-12-12T05:12:10.509Z,-2.20
2022-12-12T05:14:46.516Z,-2.20
2022-12-12T05:17:18.861Z,-2.20
2022-12-12T05:19:50.849Z,-2.20
2022-12-12T05:22:20.300Z,-2.20
2022-12-12T05:24:54.262Z,-2.30
2022-12-12T05:27:22.426Z,-2.30
2022-12-12T05:29:50.558Z,-2.30
2022-12-12T05:32:18.529Z,-2.20
2022-12-12T05:34:54.434Z,-2.30
2022-12-12T05:37:23.795Z,-2.20
2022-12-12T05:39:54.311Z,-2.30
2022-12-12T05:42:24.963Z,-2.30
2022-12-12T05:44:54.711Z,-2.30
2022-12-12T05:47:26.953Z,-2.30
2022-12-12T05:50:03.842Z,-2.30
2022-12-12T05:52:33.370Z,-2.30
2022-12-12T05:55:09.547Z,-2.30
2022-12-12T05:57:37.571Z,-2.40
2022-12-12T06:00:06.081Z,-2.40
2022-12-12T06:02:39.666Z,-2.40
2022-12-12T06:05:07.984Z,-2.40
2022-12-12T06:07:40.277Z,-2.40
2022-12-12T06:10:12.073Z,-2.40
2022-12-12T06:12:40.096Z,-2.40
2022-12-12T06:15:08.630Z,-2.50
2022-12-12T06:17:36.700Z,-2.50
2022-12-12T06:20:05.089Z,-2.50
2022-12-12T06:22:53.370Z,-2.50
2022-12-12T06:25:22.966Z,-2.50
2022-12-12T06:27:51.073Z,-2.60
2022-12-12T06:30:31.119Z,-2.60
2022-12-12T06:33:05.227Z,-2.60
2022-12-12T06:35:33.233Z,-2.60
2022-12-12T06:38:07.066Z,-2.70
2022-12-12T06:40:36.466Z,-2.70
2022-12-12T06:43:04.420Z,-2.70
2022-12-12T06:45:32.419Z,-2.70
2022-12-12T06:48:00.389Z,-2.80
2022-12-12T06:50:28.359Z,-2.80
2022-12-12T06:52:56.811Z,-2.80
2022-12-12T06:55:24.781Z,-2.80
2022-12-12T06:57:54.154Z,-2.90
2022-12-12T07:00:22.111Z,-2.90
2022-12-12T07:02:50.683Z,-2.90
2022-12-12T07:05:18.755Z,-2.90
2022-12-12T07:07:46.825Z,-2.80
2022-12-12T07:10:21.082Z,-2.80
2022-12-12T07:12:53.334Z,-2.80
2022-12-12T07:15:25.435Z,-2.90
2022-12-12T07:17:54.272Z,-2.90
2022-12-12T07:20:23.572Z,-2.90
2022-12-12T07:22:51.673Z,-2.90
2022-12-12T07:25:19.663Z,-2.90
2022-12-12T07:27:47.646Z,-3.00
2022-12-12T07:30:16.468Z,-3.00
2022-12-12T07:32:46.202Z,-3.10
2022-12-12T07:35:14.567Z,-3.10
2022-12-12T07:37:42.739Z,-3.10
2022-12-12T07:40:13.476Z,-3.10
2022-12-12T07:42:41.538Z,-3.10
2022-12-12T07:45:15.010Z,-3.10
2022-12-12T07:47:47.521Z,-3.10
2022-12-12T08:06:10.970Z,-3.20
2022-12-12T08:08:39.196Z,-3.20
2022-12-12T08:11:10.652Z,-3.20
2022-12-12T08:13:39.982Z,-3.20
2022-12-12T08:16:15.516Z,-3.10
2022-12-12T08:18:46.424Z,-3.10
2022-12-12T08:21:21.490Z,-3.10
2022-12-12T08:23:53.122Z,-3.10
2022-12-12T08:26:21.383Z,-3.10
2022-12-12T08:28:49.943Z,-3.00
2022-12-12T08:31:21.380Z,-3.00
2022-12-12T08:33:51.863Z,-3.00
2022-12-12T08:36:25.112Z,-3.00
2022-12-12T08:38:53.562Z,-2.90
2022-12-12T08:41:21.583Z,-2.90
2022-12-12T08:43:51.098Z,-2.90
2022-12-12T08:46:19.703Z,-2.90
2022-12-12T08:48:48.537Z,-2.80
2022-12-12T08:51:17.608Z,-2.80
2022-12-12T08:53:47.461Z,-2.80
2022-12-12T08:56:15.952Z,-2.80
2022-12-12T08:58:48.781Z,-2.70
2022-12-12T09:01:17.547Z,-2.70
2022-12-12T09:03:45.642Z,-2.70
2022-12-12T09:06:17.129Z,-2.70
2022-12-12T09:08:45.607Z,-2.60
2022-12-12T09:11:15.053Z,-2.60
2022-12-12T09:13:43.686Z,-2.60
2022-12-12T09:16:12.852Z,-2.60
2022-12-12T09:18:48.590Z,-2.50
2022-12-12T09:21:21.299Z,-2.50
2022-12-12T09:23:49.649Z,-2.50
2022-12-12T09:26:20.377Z,-2.50
2022-12-12T09:28:49.662Z,-2.40
2022-12-12T09:31:17.803Z,-2.40
2022-12-12T09:33:45.885Z,-2.30
2022-12-12T09:36:15.616Z,-2.40
2022-12-12T09:38:48.412Z,-2.30
2022-12-12T09:41:17.818Z,-2.30
2022-12-12T09:43:52.314Z,-2.20
2022-12-12T09:46:38.933Z,-2.20
2022-12-12T09:49:16.870Z,-2.20
2022-12-12T09:51:46.429Z,-2.10
2022-12-12T09:54:15.357Z,-2.00
2022-12-12T09:56:47.162Z,-2.00
2022-12-12T09:59:20.991Z,-2.00
2022-12-12T10:01:59.358Z,-1.90
2022-12-12T10:04:38.946Z,-1.90
2022-12-12T10:07:12.830Z,-1.80
2022-12-12T10:09:52.595Z,-1.80
2022-12-12T10:12:24.437Z,-1.70
2022-12-12T10:14:59.920Z,-1.70
2022-12-12T10:17:44.099Z,-1.60
2022-12-12T10:20:16.815Z,-1.60
2022-12-12T10:22:47.940Z,-1.50
2022-12-12T10:25:20.254Z,-1.50
2022-12-12T10:27:49.008Z,-1.40
2022-12-12T10:30:20.309Z,-1.30
2022-12-12T10:32:56.864Z,-1.30
2022-12-12T10:35:28.823Z,-1.20
2022-12-12T10:38:03.305Z,-1.20
2022-12-12T10:40:35.423Z,-1.10
2022-12-12T10:43:10.098Z,-1.00
2022-12-12T10:45:48.866Z,-1.00
2022-12-12T10:48:16.938Z,-0.90
2022-12-12T10:50:46.554Z,-0.90
2022-12-12T10:53:16.442Z,-0.80
2022-12-12T10:55:49.664Z,-0.70
2022-12-12T10:58:20.911Z,-0.70
2022-12-12T11:01:01.082Z,-0.60
2022-12-12T11:03:33.446Z,-0.50
2022-12-12T11:06:04.406Z,-0.50
2022-12-12T11:08:34.935Z,-0.40
2022-12-12T11:11:05.819Z,-0.40
2022-12-12T11:13:40.880Z,-0.30
2022-12-12T11:16:14.064Z,-0.30
2022-12-12T11:18:42.523Z,-0.20
2022-12-12T11:21:11.746Z,-0.10
2022-12-12T11:23:41.437Z,-0.10
2022-12-12T11:26:13.151Z,0.00
2022-12-12T11:28:49.262Z,0.10
2022-12-12T11:31:25.119Z,0.10
2022-12-12T11:33:54.921Z,0.20
2022-12-12T11:36:25.556Z,0.30
2022-12-12T11:38:56.474Z,0.40
2022-12-12T11:41:28.895Z,0.50
2022-12-12T11:44:01.257Z,0.50
2022-12-12T11:46:33.521Z,0.60
2022-12-12T11:49:03.135Z,0.70
2022-12-12T11:51:32.694Z,0.70
2022-12-12T11:54:01.145Z,0.70
2022-12-12T11:56:33.374Z,0.80
2022-12-12T11:59:06.804Z,0.90
2022-12-12T12:01:42.417Z,0.90
2022-12-12T12:04:19.901Z,1.00
2022-12-12T12:07:00.241Z,1.20
2022-12-12T12:09:34.104Z,1.40
2022-12-12T12:12:05.474Z,1.60
2022-12-12T12:14:53.444Z,1.80
2022-12-12T12:17:26.307Z,1.90
2022-12-12T12:19:57.548Z,1.90
2022-12-12T12:26:30.645Z,1.80
2022-12-12T12:29:11.116Z,1.80
2022-12-12T12:31:48.341Z,1.80
2022-12-12T12:34:24.197Z,1.80
2022-12-12T12:37:00.409Z,1.80
2022-12-12T12:39:39.547Z,1.80
2022-12-12T12:42:12.998Z,1.70
2022-12-12T12:44:45.361Z,1.70
2022-12-12T12:47:21.001Z,1.70
2022-12-12T12:49:52.363Z,1.70
2022-12-12T12:52:22.679Z,1.80
2022-12-12T12:54:51.155Z,1.80
2022-12-12T12:57:21.192Z,1.90
2022-12-12T12:59:57.253Z,2.00
2022-12-12T13:02:29.946Z,2.10
2022-12-12T13:05:06.847Z,2.20
2022-12-12T13:07:41.322Z,2.10
2022-12-12T13:10:16.525Z,2.20
2022-12-12T13:12:47.771Z,2.30
2022-12-12T13:15:19.911Z,2.40
2022-12-12T13:17:49.508Z,2.40
2022-12-12T13:20:23.183Z,2.60
2022-12-12T13:23:04.741Z,2.70
2022-12-12T13:25:36.064Z,2.70
2022-12-12T13:28:07.032Z,2.80
2022-12-12T13:30:43.571Z,2.90
2022-12-12T13:33:21.125Z,3.00
2022-12-12T13:35:51.856Z,3.10
2022-12-12T13:38:22.950Z,3.20
2022-12-12T13:40:59.429Z,3.30
2022-12-12T13:43:29.263Z,3.40
2022-12-12T13:45:57.454Z,3.40
2022-12-12T13:48:46.187Z,3.50
2022-12-12T13:51:37.465Z,3.60
2022-12-12T13:54:26.454Z,3.60
2022-12-12T13:57:06.982Z,3.50
2022-12-12T14:00:00.015Z,3.30
2022-12-12T14:02:32.397Z,3.20
2022-12-12T14:05:08.801Z,3.00
2022-12-12T14:07:38.845Z,3.20
2022-12-12T14:10:18.244Z,2.90
2022-12-12T14:12:46.843Z,2.90
2022-12-12T14:15:21.881Z,2.70
2022-12-12T14:17:54.544Z,2.60
2022-12-12T14:20:26.541Z,2.50
2022-12-12T14:23:24.378Z,2.40
2022-12-12T14:25:52.522Z,2.30
2022-12-12T14:28:22.029Z,2.20
2022-12-12T14:31:03.315Z,2.10
2022-12-12T14:33:45.401Z,2.00
2022-12-12T14:36:25.160Z,2.00
2022-12-12T14:39:01.390Z,1.90
2022-12-12T14:41:33.653Z,1.80
2022-12-12T14:44:37.085Z,1.70
2022-12-12T14:46:59.153Z,1.70
2022-12-12T14:49:30.838Z,1.60
2022-12-12T14:52:01.242Z,1.60
2022-12-12T14:54:31.915Z,1.60
2022-12-12T14:57:03.321Z,1.50
2022-12-12T14:59:37.797Z,1.40
2022-12-12T15:02:07.983Z,1.30
2022-12-12T15:04:41.971Z,1.30
2022-12-12T15:07:24.890Z,1.20
2022-12-12T15:09:54.382Z,1.20
2022-12-12T15:12:23.837Z,1.10
2022-12-12T15:14:56.364Z,1.10
2022-12-12T15:17:26.566Z,1.00
2022-12-12T15:19:58.707Z,1.00
2022-12-12T15:22:27.274Z,0.90
2022-12-12T15:24:57.675Z,0.90
2022-12-12T15:27:32.667Z,0.90
2022-12-12T15:30:01.318Z,0.80
2022-12-12T15:32:30.149Z,0.70
2022-12-12T15:35:02.314Z,0.70
2022-12-12T15:37:31.188Z,0.70
2022-12-12T15:40:03.368Z,0.70
2022-12-12T15:42:31.747Z,0.60
2022-12-12T15:45:01.077Z,0.60
2022-12-12T15:47:29.117Z,0.60
2022-12-12T15:50:06.573Z,0.50
2022-12-12T15:52:35.752Z,0.50
2022-12-12T15:55:05.734Z,0.50
2022-12-12T15:57:35.304Z,0.40
2022-12-12T16:00:06.127Z,0.40
2022-12-12T16:02:36.644Z,0.40
2022-12-12T16:05:06.453Z,0.40
2022-12-12T16:07:41.796Z,0.40
2022-12-12T16:10:24.424Z,0.30
2022-12-12T16:12:56.265Z,0.30
2022-12-12T16:15:29.766Z,0.30
2022-12-12T16:18:05.966Z,0.30
2022-12-12T16:20:36.475Z,0.20
2022-12-12T16:23:12.718Z,0.20
2022-12-12T16:25:42.533Z,0.20
2022-12-12T16:28:24.752Z,0.10
2022-12-12T16:30:56.034Z,0.10
2022-12-12T16:33:25.997Z,0.00
2022-12-12T16:35:54.543Z,0.00
2022-12-12T16:38:22.649Z,0.00
2022-12-12T16:40:53.979Z,-0.10
2022-12-12T16:43:26.206Z,-0.10
2022-12-12T16:45:55.130Z,-0.10
2022-12-12T16:48:24.010Z,-0.20
2022-12-12T16:50:53.825Z,-0.20
2022-12-12T16:53:21.877Z,-0.20
2022-12-12T16:55:52.217Z,-0.30
2022-12-12T16:58:22.278Z,-0.30
2022-12-12T17:00:52.941Z,-0.30
2022-12-12T17:03:21.600Z,-0.30
2022-12-12T17:05:49.747Z,-0.40
2022-12-12T17:08:18.172Z,-0.40
2022-12-12T17:10:46.626Z,-0.50
2022-12-12T17:13:16.589Z,-0.50
2022-12-12T17:15:46.014Z,-0.50
2022-12-12T17:18:14.112Z,-0.50
2022-12-12T17:20:43.105Z,-0.60
2022-12-12T17:23:29.275Z,-0.60
2022-12-12T17:26:03.528Z,-0.60
2022-12-12T17:28:33.669Z,-0.70
2022-12-12T17:31:03.499Z,-0.70
2022-12-12T17:33:31.559Z,-0.70
2022-12-12T17:36:00.886Z,-0.80
2022-12-12T17:38:30.401Z,-0.80
2022-12-12T17:40:59.204Z,-0.80
2022-12-12T17:43:27.307Z,-0.80
2022-12-12T17:45:59.584Z,-0.90
2022-12-12T17:48:38.216Z,-0.90
2022-12-12T17:51:06.956Z,-0.90
2022-12-12T17:53:37.859Z,-0.90
2022-12-12T17:56:07.939Z,-0.90
2022-12-12T17:58:37.282Z,-1.00
2022-12-12T18:01:11.826Z,-1.00
2022-12-12T18:03:41.531Z,-1.00
2022-12-12T18:06:10.082Z,-1.00
2022-12-12T18:08:38.551Z,-1.00
2022-12-12T18:11:07.814Z,-1.00
2022-12-12T18:13:36.156Z,-1.10
2022-12-12T18:16:04.462Z,-1.10
2022-12-12T18:18:32.650Z,-1.20
2022-12-12T18:21:05.343Z,-1.20
2022-12-12T18:23:41.353Z,-1.20
2022-12-12T18:26:10.689Z,-1.20
2022-12-12T18:28:39.550Z,-1.20
2022-12-12T18:31:08.414Z,-1.30
2022-12-12T18:33:36.541Z,-1.30
2022-12-12T18:36:07.386Z,-1.30
2022-12-12T18:38:40.650Z,-1.30
2022-12-12T18:41:11.284Z,-1.40
2022-12-12T18:43:39.315Z,-1.40
2022-12-12T18:46:08.187Z,-1.50
2022-12-12T18:48:38.069Z,-1.50
2022-12-12T18:51:08.133Z,-1.50
2022-12-12T18:53:36.510Z,-1.50
2022-12-12T18:56:06.355Z,-1.30
2022-12-12T18:58:39.250Z,-1.60
2022-12-12T19:01:08.337Z,-1.60
2022-12-12T19:03:41.315Z,-1.70
2022-12-12T19:06:11.855Z,-1.70
2022-12-12T19:08:39.974Z,-1.70
2022-12-12T19:11:12.297Z,-1.70
2022-12-12T19:13:42.892Z,-1.80
2022-12-12T19:16:12.036Z,-1.80
2022-12-12T19:18:40.520Z,-1.80
2022-12-12T19:21:11.860Z,-1.80
2022-12-12T19:23:40.574Z,-1.90
2022-12-12T19:26:09.282Z,-1.90
2022-12-12T19:28:37.853Z,-1.90
2022-12-12T19:31:09.254Z,-1.90
2022-12-12T19:33:37.423Z,-1.90
2022-12-12T19:36:14.057Z,-2.00
2022-12-12T19:38:42.336Z,-2.10
2022-12-12T19:41:11.336Z,-2.10
2022-12-12T19:43:39.410Z,-2.10
2022-12-12T19:46:08.327Z,-2.10
2022-12-12T19:48:36.812Z,-2.20
2022-12-12T19:51:06.243Z,-2.20
2022-12-12T19:53:37.887Z,-2.20
2022-12-12T19:56:07.584Z,-2.20
2022-12-12T19:58:38.720Z,-2.30
2022-12-12T20:01:08.120Z,-2.30
2022-12-12T20:03:40.955Z,-2.30
2022-12-12T20:06:10.974Z,-2.40
2022-12-12T20:08:40.562Z,-2.40
2022-12-12T20:11:09.706Z,-2.40
2022-12-12T20:13:38.283Z,-2.40
2022-12-12T20:16:07.040Z,-2.40
2022-12-12T20:18:35.398Z,-2.50
2022-12-12T20:21:06.826Z,-2.50
2022-12-12T20:23:35.886Z,-2.50
2022-12-12T20:26:05.475Z,-2.60
2022-12-12T20:28:33.715Z,-2.60
2022-12-12T20:31:07.860Z,-2.60
2022-12-12T20:33:36.270Z,-2.60
2022-12-12T20:36:04.700Z,-2.60
2022-12-12T20:38:33.880Z,-2.60
2022-12-12T20:41:02.682Z,-2.60
2022-12-12T20:43:32.050Z,-2.60
2022-12-12T20:46:00.435Z,-2.60
2022-12-12T20:48:28.519Z,-2.60
2022-12-12T20:50:58.947Z,-2.70
2022-12-12T20:53:29.878Z,-2.70
2022-12-12T20:56:06.484Z,-2.70
2022-12-12T20:58:43.962Z,-2.70
2022-12-12T21:01:12.785Z,-2.80
2022-12-12T21:03:41.238Z,-2.80
2022-12-12T21:06:13.275Z,-2.80
2022-12-12T21:08:41.417Z,-2.80
2022-12-12T21:11:10.162Z,-2.90
2022-12-12T21:13:40.975Z,-2.90
2022-12-12T21:16:11.756Z,-2.90
2022-12-12T21:18:40.035Z,-2.90
2022-12-12T21:21:10.327Z,-3.00
2022-12-12T21:23:40.447Z,-3.00
2022-12-12T21:26:09.586Z,-3.00
2022-12-12T21:28:40.082Z,-3.00
2022-12-12T21:31:08.937Z,-3.00
2022-12-12T21:33:39.025Z,-3.00
2022-12-12T21:36:07.945Z,-3.00
2022-12-12T21:38:36.145Z,-3.10
2022-12-12T21:41:06.406Z,-3.10
2022-12-12T21:43:37.268Z,-3.10
2022-12-12T21:46:05.604Z,-3.10
2022-12-12T21:48:34.186Z,-3.10
2022-12-12T21:51:03.820Z,-3.10
2022-12-12T21:53:38.866Z,-3.10
2022-12-12T21:56:07.970Z,-3.20
2022-12-12T21:58:37.258Z,-3.20
2022-12-12T22:01:09.328Z,-3.20
2022-12-12T22:03:40.020Z,-3.20
2022-12-12T22:06:13.908Z,-3.20
2022-12-12T22:08:42.045Z,-3.20
2022-12-12T22:11:10.850Z,-3.30
2022-12-12T22:13:42.504Z,-3.20
2022-12-12T22:16:15.346Z,-3.30
2022-12-12T22:18:43.342Z,-3.30
2022-12-12T22:21:17.246Z,-3.30
2022-12-12T22:23:46.009Z,-3.30
2022-12-12T22:26:15.630Z,-3.30
2022-12-12T22:28:45.358Z,-3.30
2022-12-12T22:31:13.416Z,-3.30
2022-12-12T22:33:41.405Z,-3.40
2022-12-12T22:36:10.125Z,-3.40
2022-12-12T22:38:44.858Z,-3.40
2022-12-12T22:41:14.682Z,-3.40
2022-12-12T22:43:42.664Z,-3.40
2022-12-12T22:46:11.415Z,-3.40
2022-12-12T22:48:39.520Z,-3.40
2022-12-12T22:51:14.492Z,-3.40
2022-12-12T22:53:44.509Z,-3.40
2022-12-12T22:56:12.951Z,-3.40
2022-12-12T22:58:41.288Z,-3.40
2022-12-12T23:01:16.065Z,-3.50
2022-12-12T23:03:44.290Z,-3.50
2022-12-12T23:06:15.465Z,-3.50
2022-12-12T23:08:49.524Z,-3.50
2022-12-12T23:11:18.205Z,-3.50
2022-12-12T23:13:46.542Z,-3.50
2022-12-12T23:16:25.307Z,-3.50
2022-12-12T23:18:53.417Z,-3.50
2022-12-12T23:21:24.632Z,-3.50
2022-12-12T23:23:54.839Z,-3.50
2022-12-12T23:26:23.516Z,-3.50
2022-12-12T23:28:51.536Z,-3.50
2022-12-12T23:31:20.620Z,-3.50
2022-12-12T23:33:51.735Z,-3.50
2022-12-12T23:36:19.749Z,-3.50
2022-12-12T23:38:47.769Z,-3.50
2022-12-12T23:41:17.343Z,-3.50
2022-12-12T23:43:45.511Z,-3.50
2022-12-12T23:46:28.338Z,-3.50
2022-12-12T23:48:59.253Z,-3.50
2022-12-12T23:51:31.157Z,-3.50
2022-12-12T23:54:03.049Z,-3.50
2022-12-12T23:56:32.824Z,-3.50
2022-12-12T23:59:04.709Z,-3.50
